Time;durP1;ratioP1;P1;durP2;ratioP2;P2;SDS_P1;SDS_P2;PMS_P1;PMS_P2;Temp;Humidity;BMP_temperature;BMP_pressure;BME280_temperature;BME280_humidity;BME280_pressure;Samples;Min_cycle;Max_cycle;Signal;HPM_P1;HPM_P2
2023/10/24 00:00:38;;;;;;;8.23;7.40;;;;;;;;;;5012164;28;20205;-52
2023/10/24 00:03:04;;;;;;;8.27;7.47;;;;;;;;;;5012077;28;20236;-52
2023/10/24 00:05:30;;;;;;;10.03;7.90;;;;;;;;;;5012282;28;20664;-52
2023/10/24 00:07:56;;;;;;;7.70;6.90;;;;;;;;;;5012016;28;20229;-52
2023/10/24 00:10:23;;;;;;;8.30;7.37;;;;;;;;;;5012014;28;20281;-52
2023/10/24 00:12:51;;;;;;;7.97;7.27;;;;;;;;;;5012017;28;20224;-52
2023/10/24 00:15:17;;;;;;;8.93;7.70;;;;;;;;;;5011957;28;20256;-52
2023/10/24 00:17:43;;;;;;;7.50;6.80;;;;;;;;;;5011845;28;20193;-52
2023/10/24 00:20:09;;;;;;;8.17;7.37;;;;;;;;;;5011935;28;20213;-52
2023/10/24 00:22:35;;;;;;;8.43;7.60;;;;;;;;;;5011889;28;20201;-52
2023/10/24 00:25:01;;;;;;;8.67;7.77;;;;;;;;;;5011969;28;20618;-51
2023/10/24 00:27:27;;;;;;;8.70;7.87;;;;;;;;;;5011571;28;20718;-52
2023/10/24 00:29:55;;;;;;;8.23;7.43;;;;;;;;;;5011756;28;20201;-52
2023/10/24 00:32:21;;;;;;;8.63;7.43;;;;;;;;;;5011819;28;20225;-52
2023/10/24 00:34:47;;;;;;;8.93;8.00;;;;;;;;;;5011870;28;20197;-52
2023/10/24 00:37:13;;;;;;;8.70;7.90;;;;;;;;;;5011635;28;20194;-52
2023/10/24 00:39:39;;;;;;;8.67;7.17;;;;;;;;;;5011678;28;20193;-52
2023/10/24 00:42:05;;;;;;;10.70;8.43;;;;;;;;;;5011497;28;20233;-52
2023/10/24 00:44:32;;;;;;;8.47;7.73;;;;;;;;;;5011727;28;20232;-52
2023/10/24 00:47:00;;;;;;;8.77;7.93;;;;;;;;;;5011580;28;20236;-52
2023/10/24 00:49:26;;;;;;;8.23;7.40;;;;;;;;;;5011547;28;20293;-52
2023/10/24 00:51:53;;;;;;;8.70;7.93;;;;;;;;;;5011642;28;20255;-52
2023/10/24 00:54:19;;;;;;;9.20;7.90;;;;;;;;;;5011535;28;20202;-52
2023/10/24 00:56:46;;;;;;;8.23;7.43;;;;;;;;;;5011559;28;20673;-52
2023/10/24 00:59:13;;;;;;;8.60;7.27;;;;;;;;;;5011408;28;20197;-53
2023/10/24 01:01:39;;;;;;;7.70;7.03;;;;;;;;;;5011400;28;20288;-52
2023/10/24 01:04:07;;;;;;;9.47;8.37;;;;;;;;;;5011383;28;20688;-52
2023/10/24 01:06:33;;;;;;;8.43;7.63;;;;;;;;;;5011357;28;20193;-52
2023/10/24 01:08:59;;;;;;;8.27;7.03;;;;;;;;;;5015185;28;20251;-52
2023/10/24 01:11:25;;;;;;;10.47;7.60;;;;;;;;;;5015146;28;20719;-52
2023/10/24 01:13:52;;;;;;;8.80;7.90;;;;;;;;;;5015392;28;20201;-52
2023/10/24 01:16:18;;;;;;;8.67;7.77;;;;;;;;;;5015360;28;20204;-52
2023/10/24 01:18:44;;;;;;;8.57;7.77;;;;;;;;;;5015190;28;20186;-52
2023/10/24 01:21:11;;;;;;;7.40;6.57;;;;;;;;;;5015324;28;20248;-52
2023/10/24 01:23:39;;;;;;;8.60;7.67;;;;;;;;;;5014988;28;20657;-52
2023/10/24 01:26:06;;;;;;;8.10;7.23;;;;;;;;;;5014878;28;20603;-52
2023/10/24 01:28:32;;;;;;;8.63;7.53;;;;;;;;;;5015026;28;20229;-52
2023/10/24 01:30:58;;;;;;;10.47;7.53;;;;;;;;;;5014949;28;20208;-52
2023/10/24 01:33:24;;;;;;;8.27;7.53;;;;;;;;;;5014757;28;20532;-52
2023/10/24 01:35:50;;;;;;;8.87;7.97;;;;;;;;;;5014739;28;20204;-52
2023/10/24 01:38:17;;;;;;;8.63;7.73;;;;;;;;;;5014789;28;20209;-52
2023/10/24 01:40:44;;;;;;;8.70;7.83;;;;;;;;;;5014790;28;20198;-52
2023/10/24 01:43:10;;;;;;;9.50;7.67;;;;;;;;;;5014379;28;20234;-52
2023/10/24 01:45:36;;;;;;;8.87;8.07;;;;;;;;;;5014634;28;20260;-52
2023/10/24 01:48:02;;;;;;;7.70;7.00;;;;;;;;;;5014774;28;20225;-52
2023/10/24 01:50:28;;;;;;;11.07;7.63;;;;;;;;;;5014536;28;20206;-52
2023/10/24 01:52:56;;;;;;;10.53;8.50;;;;;;;;;;5014504;28;20548;-53
2023/10/24 01:55:22;;;;;;;9.03;8.10;;;;;;;;;;5014317;28;20201;-53
2023/10/24 01:57:50;;;;;;;8.97;8.10;;;;;;;;;;5009392;28;20719;-53
2023/10/24 02:00:16;;;;;;;9.30;8.07;;;;;;;;;;5002727;28;20289;-53
2023/10/24 02:02:42;;;;;;;8.40;7.53;;;;;;;;;;5000818;28;20205;-53
2023/10/24 02:05:09;;;;;;;12.23;8.27;;;;;;;;;;5000735;28;20201;-52
2023/10/24 02:07:35;;;;;;;9.77;8.73;;;;;;;;;;5000778;28;20236;-52
2023/10/24 02:10:03;;;;;;;8.50;7.77;;;;;;;;;;5000921;28;20201;-53
2023/10/24 02:12:29;;;;;;;10.00;9.00;;;;;;;;;;5000786;28;20197;-53
2023/10/24 02:14:56;;;;;;;9.57;8.00;;;;;;;;;;5000835;28;20205;-53
2023/10/24 02:17:22;;;;;;;11.20;8.93;;;;;;;;;;5002107;28;20213;-53
2023/10/24 02:19:48;;;;;;;8.13;7.33;;;;;;;;;;5000321;28;20655;-52
2023/10/24 02:22:14;;;;;;;8.87;7.97;;;;;;;;;;5002188;28;20201;-52
2023/10/24 02:24:40;;;;;;;11.53;8.83;;;;;;;;;;5000594;28;20193;-53
2023/10/24 02:27:06;;;;;;;9.03;7.60;;;;;;;;;;5000351;28;20748;-52
2023/10/24 02:29:35;;;;;;;10.33;8.47;;;;;;;;;;5002248;28;20193;-52
2023/10/24 02:32:03;;;;;;;9.43;8.43;;;;;;;;;;5002106;28;20277;-52
2023/10/24 02:34:29;;;;;;;10.67;8.90;;;;;;;;;;5002201;28;20209;-52
2023/10/24 02:36:55;;;;;;;9.70;8.70;;;;;;;;;;5001966;28;20198;-52
2023/10/24 02:39:21;;;;;;;9.30;8.40;;;;;;;;;;5005176;28;20686;-52
2023/10/24 02:41:47;;;;;;;8.77;7.87;;;;;;;;;;5000237;28;20213;-51
2023/10/24 02:44:13;;;;;;;9.87;8.87;;;;;;;;;;5000028;28;20189;-52
2023/10/24 02:46:39;;;;;;;9.87;8.87;;;;;;;;;;5000168;28;20588;-51
2023/10/24 02:49:06;;;;;;;10.23;8.40;;;;;;;;;;4999861;28;20316;-52
2023/10/24 02:51:32;;;;;;;8.50;7.60;;;;;;;;;;5000235;28;20206;-51
2023/10/24 02:53:58;;;;;;;9.53;8.10;;;;;;;;;;5005130;28;20660;-51
2023/10/24 02:56:24;;;;;;;9.53;8.67;;;;;;;;;;5013260;28;20193;-52
2023/10/24 02:58:50;;;;;;;8.73;7.93;;;;;;;;;;5013266;28;20193;-52
2023/10/24 03:01:17;;;;;;;9.07;8.17;;;;;;;;;;5013513;28;20713;-52
2023/10/24 03:03:43;;;;;;;10.33;7.77;;;;;;;;;;5013189;28;20256;-52
2023/10/24 03:06:17;;;;;;;9.77;7.63;;;;;;;;;;5013036;28;20205;-52
2023/10/24 03:08:44;;;;;;;10.33;8.77;;;;;;;;;;5013146;28;20249;-53
2023/10/24 03:11:10;;;;;;;10.77;8.90;;;;;;;;;;5013210;28;20221;-53
2023/10/24 03:13:36;;;;;;;9.87;8.30;;;;;;;;;;5012983;28;20206;-52
2023/10/24 03:16:03;;;;;;;10.27;9.13;;;;;;;;;;5013233;28;20686;-53
2023/10/24 03:18:30;;;;;;;10.10;9.03;;;;;;;;;;5012930;28;20218;-52
2023/10/24 03:20:56;;;;;;;8.90;8.10;;;;;;;;;;5012889;28;20722;-53
2023/10/24 03:23:23;;;;;;;13.07;10.10;;;;;;;;;;5013011;28;20206;-52
2023/10/24 03:25:50;;;;;;;9.90;8.90;;;;;;;;;;5012895;28;20229;-53
2023/10/24 03:28:16;;;;;;;9.67;8.73;;;;;;;;;;5007612;28;20666;-53
2023/10/24 03:30:42;;;;;;;12.23;9.73;;;;;;;;;;4999855;28;20703;-53
2023/10/24 03:33:08;;;;;;;10.70;9.70;;;;;;;;;;4999131;28;20298;-53
2023/10/24 03:35:34;;;;;;;9.90;8.87;;;;;;;;;;4999098;28;20252;-53
2023/10/24 03:38:01;;;;;;;9.43;8.53;;;;;;;;;;5001020;28;20193;-53
2023/10/24 03:40:28;;;;;;;9.43;8.43;;;;;;;;;;4998947;28;20205;-53
2023/10/24 03:42:54;;;;;;;11.40;8.60;;;;;;;;;;4998881;28;20241;-53
2023/10/24 03:45:20;;;;;;;11.70;9.50;;;;;;;;;;5000528;28;20233;-53
2023/10/24 03:47:48;;;;;;;10.43;9.17;;;;;;;;;;5000735;28;20686;-53
2023/10/24 03:50:14;;;;;;;9.70;8.80;;;;;;;;;;4998925;28;20205;-52
2023/10/24 03:52:40;;;;;;;9.27;8.30;;;;;;;;;;4998750;28;20204;-53
2023/10/24 03:55:06;;;;;;;12.40;9.87;;;;;;;;;;5000443;28;20205;-52
2023/10/24 03:57:34;;;;;;;12.63;9.63;;;;;;;;;;4998862;28;20224;-53
2023/10/24 04:00:00;;;;;;;10.60;8.50;;;;;;;;;;4998839;28;20664;-53
2023/10/24 04:02:26;;;;;;;10.93;8.80;;;;;;;;;;5000231;28;20206;-53
2023/10/24 04:04:52;;;;;;;10.40;9.30;;;;;;;;;;5000358;28;20197;-53
2023/10/24 04:07:19;;;;;;;13.57;10.13;;;;;;;;;;4998706;28;20555;-52
2023/10/24 04:09:45;;;;;;;11.27;9.80;;;;;;;;;;5000478;28;20201;-52
2023/10/24 04:12:11;;;;;;;11.53;9.70;;;;;;;;;;4998507;28;20208;-52
2023/10/24 04:14:38;;;;;;;12.93;9.83;;;;;;;;;;4998256;28;20686;-52
2023/10/24 04:17:05;;;;;;;11.73;10.13;;;;;;;;;;5000212;28;20201;-52
2023/10/24 04:19:31;;;;;;;10.60;9.50;;;;;;;;;;4998485;28;20202;-52
2023/10/24 04:21:57;;;;;;;10.30;9.30;;;;;;;;;;4998426;28;20205;-53
2023/10/24 04:24:23;;;;;;;11.20;10.10;;;;;;;;;;4998436;28;20197;-53
2023/10/24 04:26:49;;;;;;;10.87;9.73;;;;;;;;;;5000128;28;20660;-53
2023/10/24 04:29:16;;;;;;;11.73;9.53;;;;;;;;;;4998381;28;20217;-52
2023/10/24 04:31:43;;;;;;;14.40;9.83;;;;;;;;;;4999829;28;20223;-52
2023/10/24 04:34:09;;;;;;;14.13;10.20;;;;;;;;;;5000084;28;20205;-52
2023/10/24 04:36:35;;;;;;;11.77;10.10;;;;;;;;;;4998185;28;20547;-52
2023/10/24 04:39:01;;;;;;;11.07;9.93;;;;;;;;;;4998382;28;20256;-53
2023/10/24 04:41:27;;;;;;;10.77;9.77;;;;;;;;;;4997902;28;20256;-53
2023/10/24 04:43:53;;;;;;;10.43;9.33;;;;;;;;;;4997909;28;20238;-52
2023/10/24 04:46:19;;;;;;;11.13;9.70;;;;;;;;;;4999691;28;20664;-52
2023/10/24 04:48:47;;;;;;;10.97;9.80;;;;;;;;;;4999931;28;20230;-52
2023/10/24 04:51:13;;;;;;;11.33;10.20;;;;;;;;;;5000224;28;20225;-52
2023/10/24 04:53:39;;;;;;;10.87;9.77;;;;;;;;;;4999823;28;20228;-52
2023/10/24 04:56:05;;;;;;;11.73;9.73;;;;;;;;;;4998266;28;20205;-52
2023/10/24 04:58:31;;;;;;;11.67;9.70;;;;;;;;;;4998383;28;20293;-52
2023/10/24 05:00:57;;;;;;;13.63;9.47;;;;;;;;;;4998103;28;20281;-52
2023/10/24 05:03:23;;;;;;;11.97;10.00;;;;;;;;;;4998026;28;20277;-52
2023/10/24 05:05:50;;;;;;;10.80;9.70;;;;;;;;;;4999553;28;20652;-52
2023/10/24 05:08:16;;;;;;;13.40;9.50;;;;;;;;;;4998132;28;20324;-52
2023/10/24 05:10:42;;;;;;;13.67;10.57;;;;;;;;;;4996186;28;20284;-52
2023/10/24 05:13:08;;;;;;;12.83;10.20;;;;;;;;;;4999545;28;20565;-52
2023/10/24 05:15:34;;;;;;;11.50;9.87;;;;;;;;;;4999573;28;20194;-52
2023/10/24 05:18:00;;;;;;;13.33;9.63;;;;;;;;;;4997970;28;20558;-52
2023/10/24 05:20:27;;;;;;;12.00;9.73;;;;;;;;;;4997849;28;20193;-53
2023/10/24 05:22:54;;;;;;;12.07;10.20;;;;;;;;;;4997876;28;20463;-52
2023/10/24 05:25:20;;;;;;;10.80;9.70;;;;;;;;;;4999757;28;20205;-52
2023/10/24 05:27:46;;;;;;;10.60;9.43;;;;;;;;;;4997890;28;20324;-52
2023/10/24 05:30:12;;;;;;;11.60;9.17;;;;;;;;;;4999508;28;20201;-52
2023/10/24 05:32:38;;;;;;;12.07;10.07;;;;;;;;;;4997468;28;20214;-53
2023/10/24 05:35:05;;;;;;;12.40;9.57;;;;;;;;;;4999414;28;20221;-52
2023/10/24 05:37:31;;;;;;;10.13;9.10;;;;;;;;;;4997715;28;20580;-52
2023/10/24 05:39:58;;;;;;;10.57;9.47;;;;;;;;;;4997643;28;20212;-53
2023/10/24 05:42:24;;;;;;;13.13;9.33;;;;;;;;;;4997585;28;20237;-52
2023/10/24 05:44:50;;;;;;;10.57;9.47;;;;;;;;;;4997584;28;20296;-52
2023/10/24 05:47:16;;;;;;;10.93;9.83;;;;;;;;;;4997765;28;20194;-53
2023/10/24 05:49:42;;;;;;;11.17;9.97;;;;;;;;;;4999088;28;20729;-52
2023/10/24 05:52:08;;;;;;;10.47;9.33;;;;;;;;;;4997514;28;20695;-52
2023/10/24 05:54:36;;;;;;;10.33;9.33;;;;;;;;;;5000354;28;20225;-52
2023/10/24 05:57:03;;;;;;;11.17;9.47;;;;;;;;;;5001353;28;20225;-53
2023/10/24 05:59:29;;;;;;;12.47;9.93;;;;;;;;;;5001016;28;20193;-52
2023/10/24 06:01:55;;;;;;;11.73;9.23;;;;;;;;;;5002693;28;20221;-52
2023/10/24 06:04:21;;;;;;;11.00;9.20;;;;;;;;;;5001088;28;20260;-52
2023/10/24 06:06:47;;;;;;;9.87;8.90;;;;;;;;;;5000973;28;20276;-52
2023/10/24 06:09:13;;;;;;;13.00;9.23;;;;;;;;;;5001081;28;20355;-53
2023/10/24 06:11:40;;;;;;;13.23;8.70;;;;;;;;;;5000867;28;20711;-53
2023/10/24 06:14:08;;;;;;;8.40;7.63;;;;;;;;;;5002368;28;20204;-52
2023/10/24 06:16:34;;;;;;;8.30;7.47;;;;;;;;;;5000656;28;20210;-52
2023/10/24 06:19:00;;;;;;;8.50;7.73;;;;;;;;;;5000361;28;20664;-52
2023/10/24 06:21:26;;;;;;;9.07;7.83;;;;;;;;;;5001603;28;20300;-53
2023/10/24 06:23:53;;;;;;;11.60;8.30;;;;;;;;;;5001555;28;20577;-53
2023/10/24 06:26:19;;;;;;;8.27;7.47;;;;;;;;;;5002257;28;20201;-52
2023/10/24 06:28:45;;;;;;;9.40;8.20;;;;;;;;;;5000593;28;20234;-52
2023/10/24 06:31:13;;;;;;;10.57;7.43;;;;;;;;;;5000170;28;20213;-53
2023/10/24 06:33:40;;;;;;;11.00;7.63;;;;;;;;;;5002104;28;20511;-53
2023/10/24 06:36:07;;;;;;;9.63;7.70;;;;;;;;;;5000407;28;20206;-52
2023/10/24 06:38:33;;;;;;;8.67;7.53;;;;;;;;;;5003799;28;20601;-52
2023/10/24 06:40:59;;;;;;;10.40;7.13;;;;;;;;;;5002022;28;20205;-52
2023/10/24 06:43:25;;;;;;;9.90;7.80;;;;;;;;;;5000222;28;20307;-52
2023/10/24 06:45:52;;;;;;;8.93;7.20;;;;;;;;;;5001859;28;20208;-52
2023/10/24 06:48:19;;;;;;;8.00;7.13;;;;;;;;;;5000627;28;20230;-52
2023/10/24 06:50:46;;;;;;;7.20;6.43;;;;;;;;;;5003536;28;20251;-52
2023/10/24 06:53:13;;;;;;;10.40;6.80;;;;;;;;;;4999134;28;20194;-52
2023/10/24 06:55:39;;;;;;;9.00;6.67;;;;;;;;;;5001811;28;20486;-52
2023/10/24 06:58:05;;;;;;;7.40;6.43;;;;;;;;;;4999892;28;20572;-52
2023/10/24 07:00:31;;;;;;;10.07;7.40;;;;;;;;;;4999916;28;20202;-52
2023/10/24 07:02:57;;;;;;;8.20;6.17;;;;;;;;;;5001435;28;20220;-52
2023/10/24 07:05:25;;;;;;;7.23;6.63;;;;;;;;;;5001297;28;20225;-52
2023/10/24 07:07:51;;;;;;;9.00;6.80;;;;;;;;;;5001333;28;20202;-52
2023/10/24 07:10:17;;;;;;;7.93;6.90;;;;;;;;;;5000069;28;20259;-52
2023/10/24 07:12:43;;;;;;;8.07;6.80;;;;;;;;;;4999707;28;21168;-55
2023/10/24 07:15:09;;;;;;;8.57;6.83;;;;;;;;;;5001281;28;20268;-52
2023/10/24 07:17:36;;;;;;;8.20;6.33;;;;;;;;;;4999410;28;20210;-51
2023/10/24 07:20:02;;;;;;;11.73;6.33;;;;;;;;;;4999696;28;20272;-52
2023/10/24 07:22:29;;;;;;;6.97;6.27;;;;;;;;;;5001051;28;20225;-51
2023/10/24 07:24:55;;;;;;;10.40;7.07;;;;;;;;;;5001423;28;20225;-52
2023/10/24 07:27:22;;;;;;;7.00;5.97;;;;;;;;;;4999820;28;20228;-52
2023/10/24 07:29:48;;;;;;;9.30;6.40;;;;;;;;;;4999329;28;21401;-52
2023/10/24 07:32:14;;;;;;;8.53;6.30;;;;;;;;;;5000925;28;20304;-51
2023/10/24 07:34:43;;;;;;;8.83;5.93;;;;;;;;;;5000788;28;20198;-52
2023/10/24 07:37:09;;;;;;;7.60;5.50;;;;;;;;;;4999439;28;20247;-52
2023/10/24 07:39:37;;;;;;;6.20;5.60;;;;;;;;;;4998875;28;20189;-52
2023/10/24 07:42:03;;;;;;;7.27;5.30;;;;;;;;;;5000773;28;20237;-52
2023/10/24 07:44:29;;;;;;;6.27;4.80;;;;;;;;;;4999249;28;20201;-52
2023/10/24 07:46:55;;;;;;;5.43;4.63;;;;;;;;;;5000604;28;20224;-52
2023/10/24 07:49:22;;;;;;;6.87;5.40;;;;;;;;;;4998899;28;20319;-52
2023/10/24 07:51:48;;;;;;;7.63;5.07;;;;;;;;;;4998968;28;20240;-52
2023/10/24 07:54:14;;;;;;;7.43;4.43;;;;;;;;;;4999062;28;20201;-52
2023/10/24 07:56:41;;;;;;;4.93;4.47;;;;;;;;;;5000485;28;20207;-51
2023/10/24 07:59:07;;;;;;;12.57;5.00;;;;;;;;;;4999841;28;20240;-51
2023/10/24 08:01:33;;;;;;;6.23;4.73;;;;;;;;;;4998759;28;20202;-52
2023/10/24 08:03:59;;;;;;;5.30;4.33;;;;;;;;;;5000485;28;20212;-52
2023/10/24 08:06:25;;;;;;;6.00;4.47;;;;;;;;;;4999184;28;20656;-50
2023/10/24 08:08:51;;;;;;;6.60;4.63;;;;;;;;;;5000134;28;20229;-53
2023/10/24 08:11:17;;;;;;;6.80;4.23;;;;;;;;;;5000324;28;20212;-51
2023/10/24 08:13:45;;;;;;;5.03;4.20;;;;;;;;;;4998420;28;20197;-51
2023/10/24 08:16:11;;;;;;;7.77;4.00;;;;;;;;;;4997872;28;20209;-52
2023/10/24 08:18:38;;;;;;;8.17;4.10;;;;;;;;;;4997994;28;20198;-51
2023/10/24 08:21:04;;;;;;;5.83;4.37;;;;;;;;;;5000243;28;20193;-51
2023/10/24 08:23:30;;;;;;;5.27;4.00;;;;;;;;;;5000364;28;20292;-52
2023/10/24 08:25:59;;;;;;;6.77;3.70;;;;;;;;;;5002118;28;20533;-51
2023/10/24 08:28:25;;;;;;;4.63;3.57;;;;;;;;;;5011794;28;20703;-51
2023/10/24 08:30:53;;;;;;;4.60;3.63;;;;;;;;;;5011556;28;20198;-51
2023/10/24 08:33:20;;;;;;;4.23;3.83;;;;;;;;;;5011963;28;20664;-51
2023/10/24 08:35:46;;;;;;;4.60;3.50;;;;;;;;;;5011821;28;20259;-51
2023/10/24 08:38:12;;;;;;;6.67;3.73;;;;;;;;;;5011961;28;20193;-52
2023/10/24 08:40:40;;;;;;;4.93;3.70;;;;;;;;;;5011586;28;20197;-51
2023/10/24 08:43:06;;;;;;;4.13;3.40;;;;;;;;;;5011868;28;20237;-51
2023/10/24 08:45:32;;;;;;;5.37;3.60;;;;;;;;;;5011615;28;20208;-51
2023/10/24 08:48:01;;;;;;;5.57;3.53;;;;;;;;;;5011528;28;20691;-51
2023/10/24 08:50:27;;;;;;;4.83;3.43;;;;;;;;;;5011955;28;20197;-52
2023/10/24 08:52:53;;;;;;;3.73;3.30;;;;;;;;;;5011755;28;20673;-51
2023/10/24 08:55:19;;;;;;;3.03;2.77;;;;;;;;;;5011646;28;20228;-51
2023/10/24 08:57:46;;;;;;;4.37;3.10;;;;;;;;;;5011737;28;20197;-51
2023/10/24 09:00:13;;;;;;;3.83;3.13;;;;;;;;;;5011705;28;20193;-51
2023/10/24 09:02:39;;;;;;;4.07;3.47;;;;;;;;;;5011460;28;20609;-51
2023/10/24 09:05:09;;;;;;;5.07;3.53;;;;;;;;;;5011432;28;20276;-51
2023/10/24 09:07:35;;;;;;;6.80;3.63;;;;;;;;;;5011478;28;20205;-51
2023/10/24 09:10:01;;;;;;;7.33;3.63;;;;;;;;;;5011443;28;20624;-51
2023/10/24 09:12:29;;;;;;;3.83;3.17;;;;;;;;;;5011420;28;20288;-52
2023/10/24 09:14:55;;;;;;;5.07;3.33;;;;;;;;;;5011274;28;20292;-52
2023/10/24 09:17:23;;;;;;;8.70;3.30;;;;;;;;;;5011444;28;20284;-52
2023/10/24 09:19:49;;;;;;;7.10;3.20;;;;;;;;;;5011380;28;20193;-52
2023/10/24 09:22:17;;;;;;;4.97;3.50;;;;;;;;;;5011569;28;20205;-52
2023/10/24 09:24:44;;;;;;;3.43;2.83;;;;;;;;;;4997676;28;20205;-53
2023/10/24 09:27:10;;;;;;;4.30;3.10;;;;;;;;;;4997896;28;20232;-52
2023/10/24 09:29:37;;;;;;;6.67;3.23;;;;;;;;;;5000644;28;20229;-52
2023/10/24 09:32:03;;;;;;;3.70;3.07;;;;;;;;;;5001436;28;21338;-53
2023/10/24 09:34:31;;;;;;;3.83;2.63;;;;;;;;;;5004929;28;20217;-53
2023/10/24 09:37:06;;;;;;;6.67;3.40;;;;;;;;;;5003060;28;20197;-52
2023/10/24 09:39:33;;;;;;;6.10;2.73;;;;;;;;;;5003213;28;20197;-53
2023/10/24 09:41:59;;;;;;;3.70;2.63;;;;;;;;;;5001246;28;20254;-53
2023/10/24 09:44:26;;;;;;;2.67;2.47;;;;;;;;;;5003140;28;20748;-53
2023/10/24 09:46:52;;;;;;;4.77;2.30;;;;;;;;;;5000953;28;20205;-53
2023/10/24 09:49:19;;;;;;;3.70;2.70;;;;;;;;;;5002914;28;20641;-52
2023/10/24 09:51:45;;;;;;;3.63;2.50;;;;;;;;;;5001564;28;20197;-52
2023/10/24 09:54:11;;;;;;;4.67;2.87;;;;;;;;;;5001215;28;20210;-51
2023/10/24 09:56:39;;;;;;;4.77;3.00;;;;;;;;;;5002783;28;20285;-52
2023/10/24 09:59:05;;;;;;;3.83;2.70;;;;;;;;;;5002799;28;20201;-52
2023/10/24 10:01:32;;;;;;;2.93;2.50;;;;;;;;;;5001100;28;20197;-52
2023/10/24 10:04:00;;;;;;;6.67;2.97;;;;;;;;;;5002757;28;20225;-50
2023/10/24 10:06:27;;;;;;;6.20;3.67;;;;;;;;;;5002599;28;20205;-50
2023/10/24 10:08:55;;;;;;;9.67;3.70;;;;;;;;;;5003882;28;20268;-52
2023/10/24 10:11:22;;;;;;;6.40;4.00;;;;;;;;;;5002466;28;20198;-50
2023/10/24 10:13:52;;;;;;;4.50;2.73;;;;;;;;;;5000862;28;20229;-50
2023/10/24 10:16:27;;;;;;;3.50;2.47;;;;;;;;;;5002700;28;20201;-52
2023/10/24 10:19:02;;;;;;;3.03;2.27;;;;;;;;;;5000570;28;20193;-51
2023/10/24 10:21:35;;;;;;;3.23;2.23;;;;;;;;;;5000869;28;20205;-52
2023/10/24 10:24:12;;;;;;;3.17;2.53;;;;;;;;;;5003991;28;20240;-52
2023/10/24 10:26:49;;;;;;;2.50;2.30;;;;;;;;;;5000680;28;20675;-52
2023/10/24 10:29:20;;;;;;;3.50;2.40;;;;;;;;;;4998976;28;20780;-52
2023/10/24 10:31:50;;;;;;;2.93;2.30;;;;;;;;;;5002060;28;20222;-52
2023/10/24 10:34:16;;;;;;;3.33;2.17;;;;;;;;;;5000281;28;20694;-52
2023/10/24 10:36:52;;;;;;;3.00;2.27;;;;;;;;;;5000331;28;20202;-52
2023/10/24 10:39:18;;;;;;;4.33;2.50;;;;;;;;;;5010085;28;20222;-52
2023/10/24 10:41:45;;;;;;;3.97;2.33;;;;;;;;;;5013630;28;20225;-52
2023/10/24 10:44:30;;;;;;;2.17;2.07;;;;;;;;;;5013773;28;20213;-52
2023/10/24 10:47:00;;;;;;;3.60;2.43;;;;;;;;;;5013623;28;20235;-52
2023/10/24 10:49:27;;;;;;;3.73;2.43;;;;;;;;;;5013353;28;20707;-52
2023/10/24 10:51:54;;;;;;;3.23;2.20;;;;;;;;;;5013408;28;20194;-53
2023/10/24 10:54:23;;;;;;;2.83;2.33;;;;;;;;;;5013600;28;20252;-53
2023/10/24 10:56:49;;;;;;;2.97;2.37;;;;;;;;;;5013326;28;20255;-52
2023/10/24 10:59:21;;;;;;;3.50;2.37;;;;;;;;;;5012234;28;20615;-52
2023/10/24 11:01:55;;;;;;;2.60;2.00;;;;;;;;;;5013319;28;20297;-52
2023/10/24 11:04:23;;;;;;;2.83;2.13;;;;;;;;;;5013355;28;20236;-52
2023/10/24 11:06:52;;;;;;;2.40;2.20;;;;;;;;;;5013315;28;20201;-52
2023/10/24 11:09:20;;;;;;;3.90;2.20;;;;;;;;;;5013183;28;20249;-52
2023/10/24 11:11:46;;;;;;;2.30;2.10;;;;;;;;;;5013237;28;20293;-52
2023/10/24 11:14:16;;;;;;;2.80;1.93;;;;;;;;;;5013151;28;20237;-52
2023/10/24 11:16:43;;;;;;;3.37;2.27;;;;;;;;;;5012995;28;20240;-54
2023/10/24 11:19:10;;;;;;;3.10;2.37;;;;;;;;;;5012977;28;20267;-51
2023/10/24 11:21:37;;;;;;;3.33;2.50;;;;;;;;;;5012997;28;20197;-52
2023/10/24 11:24:03;;;;;;;2.93;2.73;;;;;;;;;;5012888;28;20562;-52
2023/10/24 11:26:29;;;;;;;3.83;2.43;;;;;;;;;;5012861;28;20699;-52
2023/10/24 11:28:55;;;;;;;5.73;2.97;;;;;;;;;;5012648;28;20256;-52
2023/10/24 11:31:22;;;;;;;3.60;2.50;;;;;;;;;;5012834;28;20222;-53
2023/10/24 11:33:48;;;;;;;3.03;2.80;;;;;;;;;;5012712;28;20604;-52
2023/10/24 11:36:15;;;;;;;2.60;2.20;;;;;;;;;;5012630;28;20630;-52
2023/10/24 11:38:42;;;;;;;3.90;2.50;;;;;;;;;;5012722;28;20227;-53
2023/10/24 11:41:08;;;;;;;2.37;2.13;;;;;;;;;;5012560;28;20198;-53
2023/10/24 11:43:34;;;;;;;3.40;2.27;;;;;;;;;;5012413;28;20728;-53
2023/10/24 11:46:00;;;;;;;2.90;2.53;;;;;;;;;;5012486;28;20201;-53
2023/10/24 11:48:26;;;;;;;2.40;2.20;;;;;;;;;;5012538;28;20237;-53
2023/10/24 11:50:52;;;;;;;2.70;2.27;;;;;;;;;;5011586;28;20569;-53
2023/10/24 11:53:22;;;;;;;4.13;2.33;;;;;;;;;;5012519;28;20196;-53
2023/10/24 11:55:50;;;;;;;2.77;2.50;;;;;;;;;;5012425;28;20202;-53
2023/10/24 11:58:16;;;;;;;4.33;2.20;;;;;;;;;;5012329;28;20687;-53
2023/10/24 12:00:43;;;;;;;4.50;2.40;;;;;;;;;;5012172;28;20248;-53
2023/10/24 12:03:09;;;;;;;3.50;2.50;;;;;;;;;;5012165;28;20207;-53
2023/10/24 12:05:36;;;;;;;2.70;2.20;;;;;;;;;;5012249;28;20674;-53
2023/10/24 12:08:02;;;;;;;2.80;2.47;;;;;;;;;;5012333;28;20307;-53
2023/10/24 12:10:29;;;;;;;5.03;2.50;;;;;;;;;;5012025;28;20201;-53
2023/10/24 12:12:57;;;;;;;4.87;2.63;;;;;;;;;;5011766;28;20430;-53
2023/10/24 12:15:24;;;;;;;2.70;2.20;;;;;;;;;;5011983;28;20209;-52
2023/10/24 12:17:50;;;;;;;3.00;2.17;;;;;;;;;;5011829;28;20206;-53
2023/10/24 12:20:16;;;;;;;3.13;2.40;;;;;;;;;;5012129;28;20200;-53
2023/10/24 12:22:46;;;;;;;4.47;2.50;;;;;;;;;;5012167;28;20205;-53
2023/10/24 12:25:13;;;;;;;3.73;2.30;;;;;;;;;;5011676;28;20209;-53
2023/10/24 12:27:39;;;;;;;2.90;2.00;;;;;;;;;;5011901;28;20285;-53
2023/10/24 12:30:07;;;;;;;3.20;2.23;;;;;;;;;;5011700;28;20304;-53
2023/10/24 12:32:33;;;;;;;3.17;2.20;;;;;;;;;;5011786;28;20230;-53
2023/10/24 12:34:59;;;;;;;2.33;2.13;;;;;;;;;;5011740;28;20549;-53
2023/10/24 12:37:25;;;;;;;5.07;2.40;;;;;;;;;;5011647;28;20209;-52
2023/10/24 12:39:53;;;;;;;4.30;3.00;;;;;;;;;;5011608;28;20671;-53
2023/10/24 12:42:19;;;;;;;3.00;2.53;;;;;;;;;;5011396;28;20611;-52
2023/10/24 12:44:45;;;;;;;2.77;2.30;;;;;;;;;;5011668;28;20206;-52
2023/10/24 12:47:12;;;;;;;3.13;2.10;;;;;;;;;;5011580;28;20197;-51
2023/10/24 12:49:38;;;;;;;2.73;2.20;;;;;;;;;;5011460;28;20249;-51
2023/10/24 12:52:04;;;;;;;2.87;1.97;;;;;;;;;;5011294;28;20642;-51
2023/10/24 12:54:30;;;;;;;2.47;1.70;;;;;;;;;;5011832;28;20207;-52
2023/10/24 12:56:56;;;;;;;2.67;1.90;;;;;;;;;;5011507;28;20576;-52
2023/10/24 12:59:22;;;;;;;5.63;2.07;;;;;;;;;;5011582;28;20197;-53
2023/10/24 13:01:49;;;;;;;4.63;2.00;;;;;;;;;;5011958;28;20185;-52
2023/10/24 13:04:16;;;;;;;2.43;1.90;;;;;;;;;;5015553;28;20201;-52
2023/10/24 13:06:42;;;;;;;2.53;1.90;;;;;;;;;;5015465;28;20206;-52
2023/10/24 13:09:08;;;;;;;2.50;1.70;;;;;;;;;;5015195;28;20263;-53
2023/10/24 13:11:37;;;;;;;1.90;1.60;;;;;;;;;;5015508;28;20201;-53
2023/10/24 13:14:03;;;;;;;4.40;1.90;;;;;;;;;;5015448;28;20583;-52
2023/10/24 13:16:29;;;;;;;1.80;1.70;;;;;;;;;;5014991;28;20672;-52
2023/10/24 13:18:55;;;;;;;3.20;1.93;;;;;;;;;;5015226;28;20217;-52
2023/10/24 13:21:23;;;;;;;3.10;2.10;;;;;;;;;;5015144;28;20619;-53
2023/10/24 13:23:49;;;;;;;3.20;2.27;;;;;;;;;;5015159;28;20675;-52
2023/10/24 13:26:15;;;;;;;2.60;2.40;;;;;;;;;;5015014;28;20271;-52
2023/10/24 13:28:41;;;;;;;3.90;2.47;;;;;;;;;;5015075;28;20221;-53
2023/10/24 13:31:08;;;;;;;2.30;2.00;;;;;;;;;;5014863;28;20217;-53
2023/10/24 13:33:36;;;;;;;2.93;2.40;;;;;;;;;;5011691;28;20223;-53
2023/10/24 13:36:02;;;;;;;2.33;2.10;;;;;;;;;;5001432;28;20201;-53
2023/10/24 13:38:31;;;;;;;4.17;2.43;;;;;;;;;;5001416;28;20201;-53
2023/10/24 13:40:57;;;;;;;2.70;2.27;;;;;;;;;;5001335;28;20247;-53
2023/10/24 13:43:23;;;;;;;2.80;2.23;;;;;;;;;;5002854;28;20755;-52
2023/10/24 13:45:49;;;;;;;2.83;2.10;;;;;;;;;;5001356;28;20208;-52
2023/10/24 13:48:15;;;;;;;5.83;2.37;;;;;;;;;;5001343;28;20284;-53
2023/10/24 13:50:41;;;;;;;2.60;2.03;;;;;;;;;;5001203;28;20300;-53
2023/10/24 13:53:07;;;;;;;3.23;2.10;;;;;;;;;;5001008;28;20215;-52
2023/10/24 13:55:36;;;;;;;2.23;2.00;;;;;;;;;;5001467;28;20211;-52
2023/10/24 13:58:02;;;;;;;4.73;2.10;;;;;;;;;;5001368;28;20256;-52
2023/10/24 14:00:28;;;;;;;2.10;1.90;;;;;;;;;;5002727;28;20293;-52
2023/10/24 14:02:54;;;;;;;3.30;2.20;;;;;;;;;;5002798;28;20216;-53
2023/10/24 14:05:20;;;;;;;3.73;1.83;;;;;;;;;;5000914;28;20668;-53
2023/10/24 14:07:46;;;;;;;3.77;2.10;;;;;;;;;;5001121;28;20211;-52
2023/10/24 14:10:12;;;;;;;4.67;1.93;;;;;;;;;;5000795;28;20571;-52
2023/10/24 14:12:40;;;;;;;2.03;1.90;;;;;;;;;;5000598;28;20538;-52
2023/10/24 14:15:06;;;;;;;2.30;2.10;;;;;;;;;;4999920;28;20207;-52
2023/10/24 14:17:32;;;;;;;6.90;2.30;;;;;;;;;;5002594;28;20232;-52
2023/10/24 14:19:58;;;;;;;1.80;1.70;;;;;;;;;;5002610;28;20217;-51
2023/10/24 14:22:24;;;;;;;2.30;2.10;;;;;;;;;;5000529;28;20678;-52
2023/10/24 14:24:52;;;;;;;4.23;2.30;;;;;;;;;;5000569;28;20202;-51
2023/10/24 14:27:18;;;;;;;2.03;1.83;;;;;;;;;;5000784;28;20566;-51
2023/10/24 14:29:45;;;;;;;1.77;1.67;;;;;;;;;;5000633;28;20237;-52
2023/10/24 14:32:11;;;;;;;2.17;1.83;;;;;;;;;;5000244;28;20236;-52
2023/10/24 14:34:37;;;;;;;2.93;1.80;;;;;;;;;;5000393;28;20205;-52